sensor_id;sensor_type;location;lat;lon;timestamp;P1;durP1;ratioP1;P2;durP2;ratioP2
9304;SDS011;4690;52.422;13.486;2023-02-18T00:06:33;13.60;;;3.37;;
9304;SDS011;4690;52.422;13.486;2023-02-18T00:09:00;13.97;;;3.70;;
9304;SDS011;4690;52.422;13.486;2023-02-18T00:11:29;14.60;;;3.57;;
9304;SDS011;4690;52.422;13.486;2023-02-18T00:13:58;13.57;;;3.30;;
9304;SDS011;4690;52.422;13.486;2023-02-18T00:16:27;16.97;;;3.43;;
9304;SDS011;4690;52.422;13.486;2023-02-18T00:18:54;14.93;;;3.47;;
9304;SDS011;4690;52.422;13.486;2023-02-18T00:21:25;17.03;;;3.80;;
9304;SDS011;4690;52.422;13.486;2023-02-18T00:23:52;13.00;;;3.57;;
9304;SDS011;4690;52.422;13.486;2023-02-18T00:26:18;12.67;;;3.60;;
9304;SDS011;4690;52.422;13.486;2023-02-18T00:28:45;11.33;;;3.17;;
9304;SDS011;4690;52.422;13.486;2023-02-18T00:31:14;11.13;;;3.80;;
9304;SDS011;4690;52.422;13.486;2023-02-18T00:33:43;13.47;;;3.53;;
9304;SDS011;4690;52.422;13.486;2023-02-18T00:36:11;13.07;;;3.80;;
9304;SDS011;4690;52.422;13.486;2023-02-18T00:38:46;13.77;;;3.47;;
9304;SDS011;4690;52.422;13.486;2023-02-18T00:41:15;10.77;;;3.17;;
9304;SDS011;4690;52.422;13.486;2023-02-18T00:43:42;17.83;;;3.77;;
9304;SDS011;4690;52.422;13.486;2023-02-18T00:46:08;9.83;;;3.33;;
9304;SDS011;4690;52.422;13.486;2023-02-18T00:48:34;10.77;;;3.70;;
9304;SDS011;4690;52.422;13.486;2023-02-18T00:51:01;14.30;;;3.60;;
9304;SDS011;4690;52.422;13.486;2023-02-18T00:53:28;12.90;;;3.20;;
9304;SDS011;4690;52.422;13.486;2023-02-18T00:55:55;9.00;;;3.13;;
9304;SDS011;4690;52.422;13.486;2023-02-18T00:58:21;13.70;;;3.43;;
9304;SDS011;4690;52.422;13.486;2023-02-18T01:00:47;12.80;;;3.27;;
9304;SDS011;4690;52.422;13.486;2023-02-18T01:03:14;11.97;;;3.13;;
9304;SDS011;4690;52.422;13.486;2023-02-18T01:05:41;14.07;;;3.50;;
9304;SDS011;4690;52.422;13.486;2023-02-18T01:08:08;11.70;;;3.10;;
9304;SDS011;4690;52.422;13.486;2023-02-18T01:10:36;11.13;;;3.23;;
9304;SDS011;4690;52.422;13.486;2023-02-18T01:13:13;9.80;;;3.50;;
9304;SDS011;4690;52.422;13.486;2023-02-18T01:15:40;13.07;;;3.63;;
9304;SDS011;4690;52.422;13.486;2023-02-18T01:18:08;9.70;;;3.00;;
9304;SDS011;4690;52.422;13.486;2023-02-18T01:20:35;15.70;;;4.10;;
9304;SDS011;4690;52.422;13.486;2023-02-18T01:23:03;13.03;;;3.67;;
9304;SDS011;4690;52.422;13.486;2023-02-18T01:25:30;11.23;;;3.27;;
9304;SDS011;4690;52.422;13.486;2023-02-18T01:27:56;11.57;;;2.97;;
9304;SDS011;4690;52.422;13.486;2023-02-18T01:30:22;13.87;;;3.70;;
9304;SDS011;4690;52.422;13.486;2023-02-18T01:32:48;13.30;;;3.50;;
9304;SDS011;4690;52.422;13.486;2023-02-18T01:35:15;14.07;;;3.50;;
9304;SDS011;4690;52.422;13.486;2023-02-18T01:37:43;13.30;;;3.00;;
9304;SDS011;4690;52.422;13.486;2023-02-18T01:40:14;8.93;;;3.30;;
9304;SDS011;4690;52.422;13.486;2023-02-18T01:42:44;10.40;;;3.23;;
9304;SDS011;4690;52.422;13.486;2023-02-18T01:49:00;9.80;;;2.97;;
9304;SDS011;4690;52.422;13.486;2023-02-18T01:51:10;12.23;;;3.33;;
9304;SDS011;4690;52.422;13.486;2023-02-18T01:53:48;9.87;;;2.80;;
9304;SDS011;4690;52.422;13.486;2023-02-18T01:56:25;8.60;;;2.83;;
9304;SDS011;4690;52.422;13.486;2023-02-18T01:59:03;14.37;;;3.83;;
9304;SDS011;4690;52.422;13.486;2023-02-18T02:01:35;12.33;;;3.30;;
9304;SDS011;4690;52.422;13.486;2023-02-18T02:04:03;14.80;;;3.87;;
9304;SDS011;4690;52.422;13.486;2023-02-18T02:06:29;11.20;;;3.07;;
9304;SDS011;4690;52.422;13.486;2023-02-18T02:08:56;12.60;;;3.37;;
9304;SDS011;4690;52.422;13.486;2023-02-18T02:21:00;14.67;;;3.37;;
9304;SDS011;4690;52.422;13.486;2023-02-18T02:24:14;11.23;;;3.63;;
9304;SDS011;4690;52.422;13.486;2023-02-18T02:27:10;13.53;;;3.10;;
9304;SDS011;4690;52.422;13.486;2023-02-18T02:36:25;13.13;;;3.30;;
9304;SDS011;4690;52.422;13.486;2023-02-18T02:39:13;10.90;;;3.37;;
9304;SDS011;4690;52.422;13.486;2023-02-18T02:42:01;11.03;;;3.17;;
9304;SDS011;4690;52.422;13.486;2023-02-18T02:44:44;14.20;;;3.33;;
9304;SDS011;4690;52.422;13.486;2023-02-18T02:47:33;8.80;;;2.73;;
9304;SDS011;4690;52.422;13.486;2023-02-18T02:53:30;12.83;;;3.00;;
9304;SDS011;4690;52.422;13.486;2023-02-18T02:56:00;12.03;;;3.30;;
9304;SDS011;4690;52.422;13.486;2023-02-18T02:58:25;14.30;;;3.47;;
9304;SDS011;4690;52.422;13.486;2023-02-18T03:01:02;12.10;;;2.90;;
9304;SDS011;4690;52.422;13.486;2023-02-18T03:12:33;12.17;;;3.10;;
9304;SDS011;4690;52.422;13.486;2023-02-18T03:15:07;12.47;;;3.10;;
9304;SDS011;4690;52.422;13.486;2023-02-18T03:18:10;9.70;;;2.83;;
9304;SDS011;4690;52.422;13.486;2023-02-18T03:21:01;11.70;;;2.90;;
9304;SDS011;4690;52.422;13.486;2023-02-18T03:23:48;8.37;;;2.80;;
9304;SDS011;4690;52.422;13.486;2023-02-18T03:26:22;11.13;;;2.70;;
9304;SDS011;4690;52.422;13.486;2023-02-18T03:28:53;10.83;;;3.00;;
9304;SDS011;4690;52.422;13.486;2023-02-18T03:31:24;9.93;;;2.60;;
9304;SDS011;4690;52.422;13.486;2023-02-18T03:34:04;9.60;;;2.73;;
9304;SDS011;4690;52.422;13.486;2023-02-18T03:36:38;11.80;;;2.40;;
9304;SDS011;4690;52.422;13.486;2023-02-18T03:39:06;11.67;;;3.00;;
9304;SDS011;4690;52.422;13.486;2023-02-18T03:41:38;10.17;;;3.00;;
9304;SDS011;4690;52.422;13.486;2023-02-18T03:44:05;10.07;;;2.87;;
9304;SDS011;4690;52.422;13.486;2023-02-18T03:46:34;9.07;;;2.37;;
9304;SDS011;4690;52.422;13.486;2023-02-18T03:49:02;8.67;;;2.77;;
9304;SDS011;4690;52.422;13.486;2023-02-18T03:51:28;8.90;;;2.90;;
9304;SDS011;4690;52.422;13.486;2023-02-18T03:53:54;9.63;;;2.30;;
9304;SDS011;4690;52.422;13.486;2023-02-18T03:56:20;6.07;;;2.20;;
9304;SDS011;4690;52.422;13.486;2023-02-18T03:58:46;9.40;;;2.97;;
9304;SDS011;4690;52.422;13.486;2023-02-18T04:01:12;8.03;;;2.50;;
9304;SDS011;4690;52.422;13.486;2023-02-18T04:03:38;8.37;;;2.57;;
9304;SDS011;4690;52.422;13.486;2023-02-18T04:06:04;7.77;;;2.33;;
9304;SDS011;4690;52.422;13.486;2023-02-18T04:08:30;9.73;;;2.70;;
9304;SDS011;4690;52.422;13.486;2023-02-18T04:10:55;7.73;;;2.40;;
9304;SDS011;4690;52.422;13.486;2023-02-18T04:13:22;9.70;;;2.50;;
9304;SDS011;4690;52.422;13.486;2023-02-18T04:15:48;8.03;;;2.53;;
9304;SDS011;4690;52.422;13.486;2023-02-18T04:18:15;7.73;;;2.20;;
9304;SDS011;4690;52.422;13.486;2023-02-18T04:20:42;8.97;;;2.70;;
9304;SDS011;4690;52.422;13.486;2023-02-18T04:23:08;7.53;;;2.27;;
9304;SDS011;4690;52.422;13.486;2023-02-18T04:25:33;8.00;;;2.60;;
9304;SDS011;4690;52.422;13.486;2023-02-18T04:27:59;7.73;;;2.63;;
9304;SDS011;4690;52.422;13.486;2023-02-18T04:30:25;8.03;;;2.00;;
9304;SDS011;4690;52.422;13.486;2023-02-18T04:32:51;7.90;;;2.47;;
9304;SDS011;4690;52.422;13.486;2023-02-18T04:35:17;8.87;;;2.43;;
9304;SDS011;4690;52.422;13.486;2023-02-18T04:37:43;5.80;;;2.07;;
9304;SDS011;4690;52.422;13.486;2023-02-18T04:40:08;8.00;;;2.47;;
9304;SDS011;4690;52.422;13.486;2023-02-18T04:42:35;7.93;;;2.40;;
9304;SDS011;4690;52.422;13.486;2023-02-18T04:45:01;7.07;;;2.30;;
9304;SDS011;4690;52.422;13.486;2023-02-18T04:47:27;8.17;;;2.43;;
9304;SDS011;4690;52.422;13.486;2023-02-18T04:49:53;5.97;;;1.90;;
9304;SDS011;4690;52.422;13.486;2023-02-18T04:52:18;7.80;;;2.57;;
9304;SDS011;4690;52.422;13.486;2023-02-18T04:54:44;6.70;;;2.07;;
9304;SDS011;4690;52.422;13.486;2023-02-18T04:57:10;7.77;;;2.40;;
9304;SDS011;4690;52.422;13.486;2023-02-18T04:59:37;7.93;;;2.30;;
9304;SDS011;4690;52.422;13.486;2023-02-18T05:02:03;6.60;;;2.20;;
9304;SDS011;4690;52.422;13.486;2023-02-18T05:04:29;8.43;;;2.60;;
9304;SDS011;4690;52.422;13.486;2023-02-18T05:06:55;9.43;;;2.43;;
9304;SDS011;4690;52.422;13.486;2023-02-18T05:09:21;8.13;;;2.33;;
9304;SDS011;4690;52.422;13.486;2023-02-18T05:11:47;5.00;;;2.27;;
9304;SDS011;4690;52.422;13.486;2023-02-18T05:14:13;8.17;;;2.53;;
9304;SDS011;4690;52.422;13.486;2023-02-18T05:16:39;8.87;;;2.30;;
9304;SDS011;4690;52.422;13.486;2023-02-18T05:19:05;7.70;;;2.47;;
9304;SDS011;4690;52.422;13.486;2023-02-18T05:21:31;5.47;;;2.20;;
9304;SDS011;4690;52.422;13.486;2023-02-18T05:23:58;4.80;;;2.10;;
9304;SDS011;4690;52.422;13.486;2023-02-18T05:26:23;8.93;;;2.00;;
9304;SDS011;4690;52.422;13.486;2023-02-18T05:28:49;7.67;;;2.20;;
9304;SDS011;4690;52.422;13.486;2023-02-18T05:31:15;6.40;;;2.13;;
9304;SDS011;4690;52.422;13.486;2023-02-18T05:33:41;6.17;;;2.30;;
9304;SDS011;4690;52.422;13.486;2023-02-18T05:36:07;8.87;;;2.50;;
9304;SDS011;4690;52.422;13.486;2023-02-18T05:38:33;7.40;;;2.27;;
9304;SDS011;4690;52.422;13.486;2023-02-18T05:40:58;6.60;;;2.60;;
9304;SDS011;4690;52.422;13.486;2023-02-18T05:43:24;7.30;;;2.60;;
9304;SDS011;4690;52.422;13.486;2023-02-18T05:45:50;5.47;;;2.00;;
9304;SDS011;4690;52.422;13.486;2023-02-18T05:48:15;7.97;;;2.40;;
9304;SDS011;4690;52.422;13.486;2023-02-18T05:50:41;9.10;;;2.27;;
9304;SDS011;4690;52.422;13.486;2023-02-18T05:53:07;9.63;;;2.47;;
9304;SDS011;4690;52.422;13.486;2023-02-18T05:55:33;8.50;;;2.37;;
9304;SDS011;4690;52.422;13.486;2023-02-18T05:58:03;7.70;;;2.40;;
9304;SDS011;4690;52.422;13.486;2023-02-18T06:00:30;6.43;;;2.37;;
9304;SDS011;4690;52.422;13.486;2023-02-18T06:02:57;5.63;;;2.30;;
9304;SDS011;4690;52.422;13.486;2023-02-18T06:05:23;7.23;;;2.20;;
9304;SDS011;4690;52.422;13.486;2023-02-18T06:07:49;6.67;;;2.30;;
9304;SDS011;4690;52.422;13.486;2023-02-18T06:10:15;8.87;;;2.70;;
9304;SDS011;4690;52.422;13.486;2023-02-18T06:12:42;8.47;;;2.37;;
9304;SDS011;4690;52.422;13.486;2023-02-18T06:15:08;5.50;;;2.10;;
9304;SDS011;4690;52.422;13.486;2023-02-18T06:17:34;6.33;;;1.97;;
9304;SDS011;4690;52.422;13.486;2023-02-18T06:20:00;6.03;;;2.37;;
9304;SDS011;4690;52.422;13.486;2023-02-18T06:22:26;6.77;;;2.70;;
9304;SDS011;4690;52.422;13.486;2023-02-18T06:24:53;7.83;;;2.50;;
9304;SDS011;4690;52.422;13.486;2023-02-18T06:27:19;7.17;;;1.87;;
9304;SDS011;4690;52.422;13.486;2023-02-18T06:29:45;8.87;;;2.30;;
9304;SDS011;4690;52.422;13.486;2023-02-18T06:32:11;7.40;;;2.40;;
9304;SDS011;4690;52.422;13.486;2023-02-18T06:34:37;5.90;;;2.60;;
9304;SDS011;4690;52.422;13.486;2023-02-18T06:37:02;5.33;;;1.80;;
9304;SDS011;4690;52.422;13.486;2023-02-18T06:39:28;6.67;;;2.00;;
9304;SDS011;4690;52.422;13.486;2023-02-18T06:41:54;5.63;;;1.93;;
9304;SDS011;4690;52.422;13.486;2023-02-18T06:44:20;5.77;;;2.30;;
9304;SDS011;4690;52.422;13.486;2023-02-18T06:46:45;6.70;;;2.40;;
9304;SDS011;4690;52.422;13.486;2023-02-18T06:49:11;5.13;;;2.13;;
9304;SDS011;4690;52.422;13.486;2023-02-18T06:51:37;5.87;;;2.17;;
9304;SDS011;4690;52.422;13.486;2023-02-18T06:54:03;5.47;;;2.23;;
9304;SDS011;4690;52.422;13.486;2023-02-18T06:56:29;6.50;;;2.00;;
9304;SDS011;4690;52.422;13.486;2023-02-18T06:58:55;6.10;;;2.20;;
9304;SDS011;4690;52.422;13.486;2023-02-18T07:01:21;7.60;;;2.70;;
9304;SDS011;4690;52.422;13.486;2023-02-18T07:03:47;5.83;;;1.97;;
9304;SDS011;4690;52.422;13.486;2023-02-18T07:06:12;5.57;;;2.60;;
9304;SDS011;4690;52.422;13.486;2023-02-18T07:08:38;5.33;;;2.00;;
9304;SDS011;4690;52.422;13.486;2023-02-18T07:11:04;8.07;;;2.20;;
9304;SDS011;4690;52.422;13.486;2023-02-18T07:13:31;5.23;;;1.80;;
9304;SDS011;4690;52.422;13.486;2023-02-18T07:15:56;4.20;;;1.90;;
9304;SDS011;4690;52.422;13.486;2023-02-18T07:18:22;4.53;;;1.87;;
9304;SDS011;4690;52.422;13.486;2023-02-18T07:20:48;5.37;;;2.00;;
9304;SDS011;4690;52.422;13.486;2023-02-18T07:23:14;5.20;;;1.80;;
9304;SDS011;4690;52.422;13.486;2023-02-18T07:25:39;3.57;;;1.47;;
9304;SDS011;4690;52.422;13.486;2023-02-18T07:28:05;4.10;;;1.63;;
9304;SDS011;4690;52.422;13.486;2023-02-18T07:30:31;3.13;;;1.80;;
9304;SDS011;4690;52.422;13.486;2023-02-18T07:32:57;6.20;;;2.00;;
9304;SDS011;4690;52.422;13.486;2023-02-18T07:35:22;3.57;;;1.57;;
9304;SDS011;4690;52.422;13.486;2023-02-18T07:37:48;4.23;;;1.50;;
9304;SDS011;4690;52.422;13.486;2023-02-18T07:40:16;6.27;;;1.80;;
9304;SDS011;4690;52.422;13.486;2023-02-18T07:42:45;6.63;;;1.80;;
9304;SDS011;4690;52.422;13.486;2023-02-18T07:45:11;6.13;;;2.07;;
9304;SDS011;4690;52.422;13.486;2023-02-18T07:47:38;5.03;;;1.73;;
9304;SDS011;4690;52.422;13.486;2023-02-18T07:50:05;2.63;;;1.50;;
9304;SDS011;4690;52.422;13.486;2023-02-18T07:52:33;3.17;;;1.50;;
9304;SDS011;4690;52.422;13.486;2023-02-18T07:54:59;4.63;;;1.70;;
9304;SDS011;4690;52.422;13.486;2023-02-18T07:57:25;4.63;;;1.87;;
9304;SDS011;4690;52.422;13.486;2023-02-18T07:59:51;5.43;;;2.10;;
9304;SDS011;4690;52.422;13.486;2023-02-18T08:02:17;5.03;;;1.80;;
9304;SDS011;4690;52.422;13.486;2023-02-18T08:04:47;4.47;;;1.83;;
9304;SDS011;4690;52.422;13.486;2023-02-18T08:07:13;6.03;;;2.10;;
9304;SDS011;4690;52.422;13.486;2023-02-18T08:09:42;7.47;;;2.40;;
9304;SDS011;4690;52.422;13.486;2023-02-18T08:12:07;4.80;;;1.83;;
9304;SDS011;4690;52.422;13.486;2023-02-18T08:14:34;4.53;;;1.70;;
9304;SDS011;4690;52.422;13.486;2023-02-18T08:16:59;6.03;;;2.20;;
9304;SDS011;4690;52.422;13.486;2023-02-18T08:19:25;7.03;;;2.23;;
9304;SDS011;4690;52.422;13.486;2023-02-18T08:21:51;8.43;;;2.17;;
9304;SDS011;4690;52.422;13.486;2023-02-18T08:24:17;4.13;;;2.20;;
9304;SDS011;4690;52.422;13.486;2023-02-18T08:26:43;6.07;;;1.80;;
9304;SDS011;4690;52.422;13.486;2023-02-18T08:29:09;5.23;;;2.27;;
9304;SDS011;4690;52.422;13.486;2023-02-18T08:31:34;7.40;;;3.87;;
9304;SDS011;4690;52.422;13.486;2023-02-18T08:34:00;7.73;;;3.23;;
9304;SDS011;4690;52.422;13.486;2023-02-18T08:36:27;4.73;;;2.20;;
9304;SDS011;4690;52.422;13.486;2023-02-18T08:38:54;5.30;;;2.27;;
9304;SDS011;4690;52.422;13.486;2023-02-18T08:41:22;7.23;;;2.10;;
9304;SDS011;4690;52.422;13.486;2023-02-18T08:43:48;6.30;;;1.90;;
9304;SDS011;4690;52.422;13.486;2023-02-18T08:46:14;8.00;;;2.30;;
9304;SDS011;4690;52.422;13.486;2023-02-18T08:48:41;8.77;;;2.50;;
9304;SDS011;4690;52.422;13.486;2023-02-18T08:51:24;6.07;;;2.17;;
9304;SDS011;4690;52.422;13.486;2023-02-18T08:53:50;6.93;;;2.47;;
9304;SDS011;4690;52.422;13.486;2023-02-18T08:56:16;7.13;;;2.23;;
9304;SDS011;4690;52.422;13.486;2023-02-18T08:58:42;10.37;;;2.40;;
9304;SDS011;4690;52.422;13.486;2023-02-18T09:01:09;8.10;;;2.10;;
9304;SDS011;4690;52.422;13.486;2023-02-18T09:03:37;6.00;;;2.33;;
9304;SDS011;4690;52.422;13.486;2023-02-18T09:06:04;6.70;;;2.40;;
9304;SDS011;4690;52.422;13.486;2023-02-18T09:08:30;10.37;;;2.37;;
9304;SDS011;4690;52.422;13.486;2023-02-18T09:10:57;7.57;;;2.37;;
9304;SDS011;4690;52.422;13.486;2023-02-18T09:13:26;10.80;;;2.80;;
9304;SDS011;4690;52.422;13.486;2023-02-18T09:15:59;10.33;;;2.80;;
9304;SDS011;4690;52.422;13.486;2023-02-18T09:18:28;8.50;;;2.43;;
9304;SDS011;4690;52.422;13.486;2023-02-18T09:20:56;9.63;;;2.90;;
9304;SDS011;4690;52.422;13.486;2023-02-18T09:23:24;6.47;;;2.80;;
9304;SDS011;4690;52.422;13.486;2023-02-18T09:25:52;11.17;;;4.00;;
9304;SDS011;4690;52.422;13.486;2023-02-18T09:28:18;10.90;;;5.20;;
9304;SDS011;4690;52.422;13.486;2023-02-18T09:30:43;12.50;;;3.80;;
9304;SDS011;4690;52.422;13.486;2023-02-18T09:33:09;12.67;;;3.77;;
9304;SDS011;4690;52.422;13.486;2023-02-18T09:35:41;8.67;;;3.37;;
9304;SDS011;4690;52.422;13.486;2023-02-18T09:38:10;8.57;;;2.80;;
9304;SDS011;4690;52.422;13.486;2023-02-18T09:40:41;14.70;;;2.60;;
9304;SDS011;4690;52.422;13.486;2023-02-18T09:43:23;7.93;;;2.97;;
9304;SDS011;4690;52.422;13.486;2023-02-18T09:46:16;11.03;;;3.20;;
9304;SDS011;4690;52.422;13.486;2023-02-18T09:48:48;7.77;;;3.20;;
9304;SDS011;4690;52.422;13.486;2023-02-18T09:51:15;6.77;;;2.57;;
9304;SDS011;4690;52.422;13.486;2023-02-18T09:53:43;10.73;;;3.10;;
9304;SDS011;4690;52.422;13.486;2023-02-18T09:56:11;9.30;;;3.13;;
9304;SDS011;4690;52.422;13.486;2023-02-18T09:58:44;8.13;;;2.73;;
9304;SDS011;4690;52.422;13.486;2023-02-18T10:01:21;11.70;;;3.50;;
9304;SDS011;4690;52.422;13.486;2023-02-18T10:03:57;8.93;;;3.53;;
9304;SDS011;4690;52.422;13.486;2023-02-18T10:06:31;9.27;;;3.40;;
9304;SDS011;4690;52.422;13.486;2023-02-18T10:09:00;13.87;;;4.40;;
9304;SDS011;4690;52.422;13.486;2023-02-18T10:11:39;12.17;;;3.83;;
9304;SDS011;4690;52.422;13.486;2023-02-18T10:14:11;11.87;;;3.80;;
9304;SDS011;4690;52.422;13.486;2023-02-18T10:16:39;11.20;;;3.70;;
9304;SDS011;4690;52.422;13.486;2023-02-18T10:19:19;8.43;;;3.80;;
9304;SDS011;4690;52.422;13.486;2023-02-18T10:21:53;16.40;;;3.80;;
9304;SDS011;4690;52.422;13.486;2023-02-18T10:26:54;11.83;;;3.27;;
9304;SDS011;4690;52.422;13.486;2023-02-18T10:29:21;8.67;;;3.27;;
9304;SDS011;4690;52.422;13.486;2023-02-18T10:32:35;12.77;;;3.40;;
9304;SDS011;4690;52.422;13.486;2023-02-18T10:35:05;13.70;;;3.47;;
9304;SDS011;4690;52.422;13.486;2023-02-18T10:43:15;12.97;;;3.63;;
9304;SDS011;4690;52.422;13.486;2023-02-18T10:51:56;10.77;;;4.23;;
9304;SDS011;4690;52.422;13.486;2023-02-18T10:54:26;7.07;;;3.10;;
9304;SDS011;4690;52.422;13.486;2023-02-18T10:57:25;8.40;;;3.70;;
9304;SDS011;4690;52.422;13.486;2023-02-18T11:05:49;7.60;;;3.40;;
9304;SDS011;4690;52.422;13.486;2023-02-18T11:08:26;9.87;;;3.40;;
9304;SDS011;4690;52.422;13.486;2023-02-18T11:11:15;8.63;;;3.10;;
9304;SDS011;4690;52.422;13.486;2023-02-18T11:13:53;9.37;;;3.20;;
9304;SDS011;4690;52.422;13.486;2023-02-18T11:16:22;8.93;;;3.13;;
9304;SDS011;4690;52.422;13.486;2023-02-18T11:19:01;7.13;;;3.00;;
9304;SDS011;4690;52.422;13.486;2023-02-18T11:21:29;10.50;;;3.03;;
9304;SDS011;4690;52.422;13.486;2023-02-18T11:24:11;7.00;;;2.77;;
9304;SDS011;4690;52.422;13.486;2023-02-18T11:26:45;7.87;;;3.10;;
9304;SDS011;4690;52.422;13.486;2023-02-18T11:29:14;7.70;;;2.87;;
9304;SDS011;4690;52.422;13.486;2023-02-18T11:31:48;5.87;;;2.93;;
9304;SDS011;4690;52.422;13.486;2023-02-18T11:34:20;4.90;;;2.50;;
9304;SDS011;4690;52.422;13.486;2023-02-18T11:36:51;5.40;;;2.83;;
9304;SDS011;4690;52.422;13.486;2023-02-18T11:39:22;4.97;;;2.70;;
9304;SDS011;4690;52.422;13.486;2023-02-18T11:41:55;4.03;;;2.40;;
9304;SDS011;4690;52.422;13.486;2023-02-18T11:44:37;4.73;;;2.50;;
9304;SDS011;4690;52.422;13.486;2023-02-18T11:47:20;5.07;;;2.43;;
9304;SDS011;4690;52.422;13.486;2023-02-18T11:52:35;2.97;;;2.10;;
9304;SDS011;4690;52.422;13.486;2023-02-18T11:57:49;2.87;;;2.57;;
9304;SDS011;4690;52.422;13.486;2023-02-18T12:06:04;15.00;;;8.50;;
9304;SDS011;4690;52.422;13.486;2023-02-18T12:08:48;8.03;;;5.10;;
9304;SDS011;4690;52.422;13.486;2023-02-18T12:11:42;7.00;;;4.10;;
9304;SDS011;4690;52.422;13.486;2023-02-18T12:14:18;5.03;;;4.43;;
9304;SDS011;4690;52.422;13.486;2023-02-18T12:22:42;5.17;;;4.67;;
9304;SDS011;4690;52.422;13.486;2023-02-18T12:25:39;4.80;;;4.27;;
9304;SDS011;4690;52.422;13.486;2023-02-18T12:31:19;4.63;;;3.87;;
9304;SDS011;4690;52.422;13.486;2023-02-18T12:35:14;5.37;;;4.20;;
9304;SDS011;4690;52.422;13.486;2023-02-18T12:43:43;7.63;;;5.90;;
9304;SDS011;4690;52.422;13.486;2023-02-18T13:12:27;6.10;;;5.30;;
9304;SDS011;4690;52.422;13.486;2023-02-18T13:15:16;6.53;;;4.70;;
9304;SDS011;4690;52.422;13.486;2023-02-18T13:18:02;4.80;;;4.30;;
9304;SDS011;4690;52.422;13.486;2023-02-18T13:23:06;4.40;;;3.80;;
9304;SDS011;4690;52.422;13.486;2023-02-18T13:25:50;5.10;;;3.60;;
9304;SDS011;4690;52.422;13.486;2023-02-18T13:28:25;3.87;;;3.57;;
9304;SDS011;4690;52.422;13.486;2023-02-18T13:36:45;4.83;;;3.30;;
9304;SDS011;4690;52.422;13.486;2023-02-18T13:39:57;4.80;;;3.60;;
9304;SDS011;4690;52.422;13.486;2023-02-18T13:52:59;4.27;;;3.87;;
9304;SDS011;4690;52.422;13.486;2023-02-18T14:00:59;3.70;;;3.40;;
9304;SDS011;4690;52.422;13.486;2023-02-18T14:06:18;4.27;;;3.53;;
9304;SDS011;4690;52.422;13.486;2023-02-18T14:08:49;4.30;;;3.93;;
9304;SDS011;4690;52.422;13.486;2023-02-18T14:11:33;3.50;;;3.30;;
9304;SDS011;4690;52.422;13.486;2023-02-18T14:27:38;3.63;;;3.33;;
9304;SDS011;4690;52.422;13.486;2023-02-18T14:30:07;3.97;;;3.60;;
9304;SDS011;4690;52.422;13.486;2023-02-18T14:32:51;3.73;;;3.27;;
9304;SDS011;4690;52.422;13.486;2023-02-18T14:35:29;3.70;;;3.40;;
9304;SDS011;4690;52.422;13.486;2023-02-18T14:47:19;3.43;;;3.13;;
9304;SDS011;4690;52.422;13.486;2023-02-18T14:49:51;3.50;;;3.20;;
9304;SDS011;4690;52.422;13.486;2023-02-18T14:52:33;3.77;;;3.40;;
9304;SDS011;4690;52.422;13.486;2023-02-18T14:55:06;3.40;;;3.10;;
9304;SDS011;4690;52.422;13.486;2023-02-18T14:57:43;3.43;;;3.13;;
9304;SDS011;4690;52.422;13.486;2023-02-18T15:00:20;3.23;;;2.97;;
9304;SDS011;4690;52.422;13.486;2023-02-18T15:02:51;3.07;;;2.87;;
9304;SDS011;4690;52.422;13.486;2023-02-18T15:05:20;3.57;;;3.27;;
9304;SDS011;4690;52.422;13.486;2023-02-18T15:08:00;3.00;;;2.80;;
9304;SDS011;4690;52.422;13.486;2023-02-18T15:10:46;3.03;;;2.67;;
9304;SDS011;4690;52.422;13.486;2023-02-18T15:13:36;2.50;;;2.30;;
9304;SDS011;4690;52.422;13.486;2023-02-18T15:16:08;2.70;;;2.50;;
9304;SDS011;4690;52.422;13.486;2023-02-18T15:18:59;2.70;;;2.50;;
9304;SDS011;4690;52.422;13.486;2023-02-18T15:21:34;2.23;;;2.03;;
9304;SDS011;4690;52.422;13.486;2023-02-18T15:24:09;2.20;;;2.00;;
9304;SDS011;4690;52.422;13.486;2023-02-18T15:26:42;2.00;;;1.90;;
9304;SDS011;4690;52.422;13.486;2023-02-18T15:29:17;2.10;;;1.90;;
9304;SDS011;4690;52.422;13.486;2023-02-18T15:31:46;1.80;;;1.70;;
9304;SDS011;4690;52.422;13.486;2023-02-18T15:34:34;2.00;;;1.90;;
9304;SDS011;4690;52.422;13.486;2023-02-18T15:37:04;1.90;;;1.80;;
9304;SDS011;4690;52.422;13.486;2023-02-18T15:39:34;1.90;;;1.80;;
9304;SDS011;4690;52.422;13.486;2023-02-18T15:42:13;2.03;;;1.90;;
9304;SDS011;4690;52.422;13.486;2023-02-18T15:44:50;2.50;;;1.87;;
9304;SDS011;4690;52.422;13.486;2023-02-18T15:47:28;2.10;;;1.90;;
9304;SDS011;4690;52.422;13.486;2023-02-18T15:49:58;1.93;;;1.83;;
9304;SDS011;4690;52.422;13.486;2023-02-18T15:52:28;2.10;;;1.87;;
9304;SDS011;4690;52.422;13.486;2023-02-18T15:55:03;1.80;;;1.70;;
9304;SDS011;4690;52.422;13.486;2023-02-18T15:57:38;1.90;;;1.70;;
9304;SDS011;4690;52.422;13.486;2023-02-18T16:02:53;1.73;;;1.63;;
9304;SDS011;4690;52.422;13.486;2023-02-18T16:05:36;2.87;;;2.13;;
9304;SDS011;4690;52.422;13.486;2023-02-18T16:08:11;2.10;;;1.90;;
9304;SDS011;4690;52.422;13.486;2023-02-18T16:10:59;2.20;;;2.00;;
9304;SDS011;4690;52.422;13.486;2023-02-18T16:13:31;1.80;;;1.70;;
9304;SDS011;4690;52.422;13.486;2023-02-18T16:16:01;1.93;;;1.83;;
9304;SDS011;4690;52.422;13.486;2023-02-18T16:18:29;2.00;;;1.90;;
9304;SDS011;4690;52.422;13.486;2023-02-18T16:21:04;1.93;;;1.83;;
9304;SDS011;4690;52.422;13.486;2023-02-18T16:23:56;2.93;;;1.93;;
9304;SDS011;4690;52.422;13.486;2023-02-18T16:26:26;1.83;;;1.73;;
9304;SDS011;4690;52.422;13.486;2023-02-18T16:29:20;1.77;;;1.67;;
9304;SDS011;4690;52.422;13.486;2023-02-18T16:31:58;4.47;;;1.90;;
9304;SDS011;4690;52.422;13.486;2023-02-18T16:34:26;2.47;;;2.13;;
9304;SDS011;4690;52.422;13.486;2023-02-18T16:36:52;2.83;;;2.00;;
9304;SDS011;4690;52.422;13.486;2023-02-18T16:39:37;2.10;;;1.90;;
9304;SDS011;4690;52.422;13.486;2023-02-18T16:42:10;2.30;;;2.10;;
9304;SDS011;4690;52.422;13.486;2023-02-18T16:44:37;2.30;;;2.00;;
9304;SDS011;4690;52.422;13.486;2023-02-18T16:47:04;2.43;;;1.70;;
9304;SDS011;4690;52.422;13.486;2023-02-18T16:49:32;2.83;;;1.40;;
9304;SDS011;4690;52.422;13.486;2023-02-18T16:51:59;1.97;;;1.30;;
9304;SDS011;4690;52.422;13.486;2023-02-18T16:54:32;2.10;;;1.50;;
9304;SDS011;4690;52.422;13.486;2023-02-18T16:56:58;2.77;;;1.50;;
9304;SDS011;4690;52.422;13.486;2023-02-18T16:59:24;2.73;;;1.40;;
9304;SDS011;4690;52.422;13.486;2023-02-18T17:01:50;1.50;;;1.40;;
9304;SDS011;4690;52.422;13.486;2023-02-18T17:04:16;3.23;;;1.63;;
9304;SDS011;4690;52.422;13.486;2023-02-18T17:06:44;3.43;;;1.67;;
9304;SDS011;4690;52.422;13.486;2023-02-18T17:09:43;3.97;;;1.67;;
9304;SDS011;4690;52.422;13.486;2023-02-18T17:12:02;2.67;;;1.73;;
9304;SDS011;4690;52.422;13.486;2023-02-18T17:14:29;2.97;;;1.70;;
9304;SDS011;4690;52.422;13.486;2023-02-18T17:16:55;5.03;;;2.30;;
9304;SDS011;4690;52.422;13.486;2023-02-18T17:19:22;3.37;;;2.93;;
9304;SDS011;4690;52.422;13.486;2023-02-18T17:21:48;4.47;;;2.73;;
9304;SDS011;4690;52.422;13.486;2023-02-18T17:24:15;3.37;;;2.73;;
9304;SDS011;4690;52.422;13.486;2023-02-18T17:26:42;2.97;;;2.67;;
9304;SDS011;4690;52.422;13.486;2023-02-18T17:29:08;3.20;;;2.90;;
9304;SDS011;4690;52.422;13.486;2023-02-18T17:31:41;3.37;;;2.80;;
9304;SDS011;4690;52.422;13.486;2023-02-18T17:34:21;2.90;;;2.70;;
9304;SDS011;4690;52.422;13.486;2023-02-18T17:36:51;2.97;;;2.67;;
9304;SDS011;4690;52.422;13.486;2023-02-18T17:39:17;2.87;;;2.30;;
9304;SDS011;4690;52.422;13.486;2023-02-18T17:41:45;3.37;;;2.87;;
9304;SDS011;4690;52.422;13.486;2023-02-18T17:44:14;3.20;;;2.90;;
9304;SDS011;4690;52.422;13.486;2023-02-18T17:46:43;3.00;;;2.70;;
9304;SDS011;4690;52.422;13.486;2023-02-18T17:49:09;3.10;;;2.70;;
9304;SDS011;4690;52.422;13.486;2023-02-18T17:51:35;3.67;;;2.50;;
9304;SDS011;4690;52.422;13.486;2023-02-18T17:54:02;2.43;;;2.17;;
9304;SDS011;4690;52.422;13.486;2023-02-18T17:56:40;3.13;;;2.40;;
9304;SDS011;4690;52.422;13.486;2023-02-18T17:59:07;2.77;;;2.23;;
9304;SDS011;4690;52.422;13.486;2023-02-18T18:01:33;2.40;;;2.20;;
9304;SDS011;4690;52.422;13.486;2023-02-18T18:03:59;2.30;;;2.10;;